East Clinton, Illinois
Current Conditions -  °F | °C
As of 2:35 AM on Friday 28 Nov 2014 (Local Time) from KCWI Reporting Station
Broken Clouds Broken Clouds  
Wind Chill:   Ceiling: 7500
Heat Index: 16°   Visibility: 9mi
Dew Point:   Wind: 6mph
Humidity: 73%   Direction: 140°SE
Pressure: 30.35"   Gusts: NA
Location:  41.8428°N, 90.1189°W
Report Text: KCWI 280835Z AUTO 14005KT 9SM FEW023 SCT029 BKN075 M09/M13 A3035 RMK AO1
Loading
Personal Weather Stations






























Interactive Weather Map New forecast layout! Learn more

10-Day Weather Forecast

Advertisements
Track Severe Weather on mobile